Flight Track Log - Related Links

Times and Time Zones

All times are in EDT time to prevent confusion due to time zone crossing. See the UAL822 flight status page for this flight to view local times or setup timezone preferences in your user account.

Time Position Orientation Groundspeed Altitude Reporting Facility
EDT Latitude Longitude Course Direction KTS MPH feet Rate Location/Type
Wed 05:30:29 PM 38.9833 -77.5500 57° Northeast 219 252 2,500  Level Potomac TRACON
Wed 05:31:23 PM 39.0333 -77.5833 333° Northwest 237 273 5,600 2,950 Climbing Potomac TRACON
Wed 05:32:00 PM 39.0102 -77.0610 77° East  Level FlightAware Approximate
Wed 05:32:29 PM 39.1000 -77.5333 30° Northeast 261 300 8,400  Level Potomac TRACON
Wed 05:33:00 PM 39.0346 -76.9255 78° East  Level FlightAware Approximate
Wed 05:33:29 PM 39.1500 -77.4667 46° Northeast 304 350 10,000  Level Potomac TRACON
Wed 05:34:00 PM 39.0574 -76.7894 78° East  Level FlightAware Approximate
Wed 05:34:30 PM 39.1667 -77.3333 81° East 380 437 10,100  Level Potomac TRACON
Wed 05:35:00 PM 39.0730 -76.6539 57° Northeast  Level FlightAware Approximate
Wed 05:36:40 PM 39.0956 -77.1028 112° Southeast 392 451 11,600  Level Washington Center
Wed 05:37:38 PM 39.0764 -76.9658 100° East 384 442 14,600 2,622 Climbing Washington Center
Wed 05:38:39 PM 39.0903 -76.8353 82° East 356 410 16,800 1,983 Climbing Washington Center
Wed 05:39:39 PM 39.1042 -76.7017 82° East 356 410 18,600 1,835 Climbing Washington Center
Wed 05:40:40 PM 39.1178 -76.5600 83° East 376 433 20,500 1,765 Climbing Washington Center
Wed 05:41:38 PM 39.1314 -76.4158 83° East 388 447 22,100 1,261 Climbing Washington Center
Wed 05:42:39 PM 39.1450 -76.2661 83° East 409 471 23,000 443 Climbing Washington Center
Wed 05:43:40 PM 39.1667 -76.1003 80° East 417 480 23,000  Level Washington Center
Wed 05:44:38 PM 39.1839 -75.9531 81° East 422 486 23,000  Level Washington Center
Wed 05:45:39 PM 39.2361 -75.8247 62° Northeast 408 470 23,000  Level Washington Center
Wed 05:46:39 PM 39.3175 -75.7203 45° Northeast 392 451 23,000  Level Washington Center
Wed 05:47:40 PM 39.3969 -75.6158 45° Northeast 397 457 23,000 303 Level Washington Center
Wed 05:48:38 PM 39.4822 -75.5081 44° Northeast 402 463 23,600 958 Climbing Washington Center
Wed 05:49:39 PM 39.5675 -75.3978 45° Northeast 415 478 24,900 1,230 Climbing Washington Center
Wed 05:50:40 PM 39.6528 -75.2817 46° Northeast 430 495 26,100 1,109 Climbing Washington Center
Wed 05:51:38 PM 39.7378 -75.1653 46° Northeast 435 501 27,100 1,388 Climbing Washington Center
Wed 05:52:41 PM 39.8258 -75.0361 48° Northeast 452 520 28,900 919 Climbing New York Center
Wed 05:53:42 PM 39.9072 -74.9194 48° Northeast 456 525 29,000 50 Climbing New York Center
Wed 05:54:42 PM 39.9817 -74.8128 48° Northeast 445 512 29,000  Level New York Center
Wed 05:55:40 PM 40.0717 -74.6797 49° Northeast 440 506 29,000  Level New York Center
Wed 05:56:41 PM 40.1442 -74.5697 49° Northeast 440 506 29,000  Level New York Center
Wed 05:57:42 PM 40.2253 -74.4464 49° Northeast 440 506 29,000 -49 Level New York Center
Wed 05:58:43 PM 40.3039 -74.3225 50° Northeast 446 513 28,900  Descending New York Center
Wed 05:59:40 PM 40.3828 -74.1958 51° Northeast 441 507 29,000 51 Climbing New York Center
Wed 06:00:40 PM 40.4614 -74.0717 50° Northeast 441 507 29,000 -300 Level New York Center
Wed 06:01:40 PM 40.5397 -73.9444 51° Northeast 441 507 28,400 -1,339 Descending New York Center
Wed 06:02:41 PM 40.6203 -73.8222 49° Northeast 441 507 26,300 -2,115 Descending New York Center
Wed 06:03:42 PM 40.7003 -73.7000 49° Northeast 441 507 24,100 -941 Descending New York Center
Wed 06:05:14 PM 40.8178 -73.5014 52° Northeast 453 521 23,900 -39 Descending Boston Center
Wed 06:06:14 PM 40.8939 -73.3819 50° Northeast 441 507 24,000 -350 Climbing Boston Center
Wed 06:07:14 PM 40.9739 -73.2758 45° Northeast 419 482 23,200 -900 Descending Boston Center
Wed 06:08:14 PM 41.0414 -73.1639 51° Northeast 396 456 22,200 -950 Descending Boston Center
Wed 06:09:14 PM 41.1231 -73.0958 32° Northeast 366 421 21,300 -600 Descending Boston Center
Wed 06:10:14 PM 41.1839 -73.0000 50° Northeast 352 405 21,000 -136 Descending Boston Center
Wed 06:11:26 PM 41.2408 -72.8486 63° Northeast 356 410 21,000  Level Boston Center
Wed 06:12:26 PM 41.2956 -72.7081 63° Northeast 375 432 21,000  Level Boston Center
Wed 06:13:26 PM 41.3417 -72.5811 64° Northeast 380 437 21,000  Level Boston Center
Wed 06:14:26 PM 41.3875 -72.4594 63° Northeast 380 437 21,000 -45 Level Boston Center
Wed 06:15:38 PM 41.4064 -72.3458 77° East 324 373 20,900  Descending Boston Center
Wed 06:16:50 PM 41.3644 -72.2161 113° Southeast 318 366 21,000 45 Climbing Boston Center
Wed 06:17:50 PM 41.3308 -72.0917 110° East 330 380 21,000  Level Boston Center
Wed 06:18:50 PM 41.3094 -71.9428 101° East 337 388 21,000 -50 Level Boston Center
Wed 06:19:50 PM 41.2858 -71.8186 104° East 342 394 20,900 -650 Descending Boston Center
Wed 06:20:50 PM 41.2914 -71.6997 86° East 342 394 19,700 -1,400 Descending Boston Center
Wed 06:21:50 PM 41.3722 -71.6489 25° Northeast 267 307 18,100 -1,700 Descending Boston Center
Wed 06:22:50 PM 41.4594 -71.5953 25° Northeast 291 335 16,300 -1,700 Descending Boston Center
Wed 06:23:50 PM 41.5278 -71.5528 25° Northeast 303 349 14,700 -1,650 Descending Boston Center
Wed 06:24:50 PM 41.5964 -71.5103 25° Northeast 297 342 13,000 -1,800 Descending Boston Center
Wed 06:25:50 PM 41.6769 -71.4394 33° Northeast 291 335 11,100 -1,000 Descending Boston Center
Wed 06:26:50 PM 41.7325 -71.3664 44° Northeast 285 328 11,000 -50 Descending Boston Center
Wed 06:27:50 PM 41.7861 -71.2875 48° Northeast 279 321 11,000 -100 Level Boston Center
Wed 06:28:50 PM 41.8586 -71.2500 21° North 274 315 10,800 -1,000 Descending Boston Center
Wed 06:29:50 PM 41.9311 -71.2122 21° North 274 315 9,000 -1,600 Descending Boston Center
Wed 06:30:50 PM 42.0017 -71.1800 19° North 274 315 7,600 -1,650 Descending Boston Center
Wed 06:31:50 PM 42.0700 -71.1481 19° North 268 308 5,700 -1,672 Descending Boston Center
Wed 06:32:52 PM 42.1500 -71.1167 16° North 256 295 4,200 -1,122 Descending KA90
Wed 06:33:53 PM 42.2167 -71.0833 20° North 231 266 3,400 -787 Descending KA90

Login

Don't have an account? Register now (free) for customized features, flight alerts, and more!